createdAt,value
2023-04-18T00:00:43.331Z,82.94
2023-04-18T00:01:34.825Z,82.57
2023-04-18T00:02:28.830Z,82.09
2023-04-18T00:03:22.984Z,83.02
2023-04-18T00:04:14.983Z,83.54
2023-04-18T00:05:07.931Z,83.35
2023-04-18T00:05:59.449Z,83.68
2023-04-18T00:06:51.331Z,84.87
2023-04-18T00:07:42.728Z,83.24
2023-04-18T00:08:35.660Z,84.94
2023-04-18T00:09:27.152Z,83.87
2023-04-18T00:10:19.081Z,84.61
2023-04-18T00:11:10.982Z,83.99
2023-04-18T00:12:04.094Z,84.49
2023-04-18T00:12:55.567Z,84.89
2023-04-18T00:13:47.399Z,84.06
2023-04-18T00:14:39.017Z,83.69
2023-04-18T00:15:31.167Z,84.11
2023-04-18T00:16:23.323Z,83.98
2023-04-18T00:17:16.022Z,83.15
2023-04-18T00:18:08.401Z,83.09
2023-04-18T00:18:59.872Z,83.21
2023-04-18T00:19:51.682Z,83.54
2023-04-18T00:20:43.304Z,83.19
2023-04-18T00:21:35.977Z,85.16
2023-04-18T00:22:28.210Z,85.37
2023-04-18T00:23:21.387Z,85.10
2023-04-18T00:24:13.339Z,84.66
2023-04-18T00:25:05.613Z,83.43
2023-04-18T00:25:57.295Z,84.76
2023-04-18T00:26:49.351Z,83.66
2023-04-18T00:27:41.327Z,85.01
2023-04-18T00:28:32.800Z,84.29
2023-04-18T00:29:24.167Z,84.02
2023-04-18T00:30:17.642Z,83.86
2023-04-18T00:31:09.094Z,84.74
2023-04-18T00:32:00.530Z,84.26
2023-04-18T00:32:55.388Z,84.36
2023-04-18T00:33:46.930Z,84.75
2023-04-18T00:34:40.617Z,86.07
2023-04-18T00:35:32.183Z,85.30
2023-04-18T00:36:23.673Z,84.12
2023-04-18T00:37:15.224Z,83.91
2023-04-18T00:38:06.879Z,83.11
2023-04-18T00:38:58.327Z,83.72
2023-04-18T00:39:53.676Z,84.64
2023-04-18T00:40:45.370Z,83.87
2023-04-18T00:41:36.962Z,84.62
2023-04-18T00:42:29.411Z,82.90
2023-04-18T00:43:23.482Z,83.47
2023-04-18T00:44:15.165Z,83.40
2023-04-18T00:45:07.339Z,85.38
2023-04-18T00:46:01.428Z,81.93
2023-04-18T00:46:53.061Z,82.31
2023-04-18T00:47:44.564Z,82.85
2023-04-18T00:48:39.168Z,83.19
2023-04-18T00:49:31.081Z,83.78
2023-04-18T00:50:23.595Z,85.31
2023-04-18T00:51:15.671Z,82.36
2023-04-18T00:52:07.291Z,82.11
2023-04-18T00:52:58.957Z,83.20
2023-04-18T00:53:50.723Z,84.48
2023-04-18T00:54:43.934Z,84.43
2023-04-18T00:55:35.989Z,84.30
2023-04-18T00:56:29.386Z,82.56
2023-04-18T00:57:22.624Z,81.31
2023-04-18T00:58:15.482Z,81.55
2023-04-18T00:59:09.465Z,81.93
2023-04-18T01:00:01.759Z,83.05
2023-04-18T01:00:54.679Z,82.87
2023-04-18T01:01:50.217Z,81.88
2023-04-18T01:02:41.945Z,82.48
2023-04-18T01:03:34.614Z,82.77
2023-04-18T01:04:26.461Z,82.56
2023-04-18T01:05:18.978Z,82.84
2023-04-18T01:06:10.754Z,81.98
2023-04-18T01:07:03.222Z,80.32
2023-04-18T01:08:00.777Z,81.86
2023-04-18T01:08:55.964Z,81.60
2023-04-18T01:09:49.208Z,81.81
2023-04-18T01:10:40.811Z,82.60
2023-04-18T01:11:32.861Z,82.66
2023-04-18T01:12:24.342Z,83.14
2023-04-18T01:13:18.241Z,83.18
2023-04-18T01:14:09.630Z,83.17
2023-04-18T01:15:00.994Z,81.43
2023-04-18T01:15:55.602Z,84.01
2023-04-18T01:16:51.187Z,83.49
2023-04-18T01:17:44.120Z,83.50
2023-04-18T01:18:40.128Z,84.96
2023-04-18T01:19:32.851Z,83.56
2023-04-18T01:20:26.259Z,82.50
2023-04-18T01:21:18.119Z,80.76
2023-04-18T01:22:13.799Z,84.11
2023-04-18T01:23:05.777Z,84.27
2023-04-18T01:24:12.478Z,83.28
2023-04-18T01:25:09.843Z,82.95
2023-04-18T01:26:01.317Z,82.42
2023-04-18T01:26:52.804Z,82.28
2023-04-18T01:27:44.464Z,80.37
2023-04-18T01:28:37.369Z,80.25
2023-04-18T01:29:29.072Z,81.41
2023-04-18T01:30:22.313Z,81.38
2023-04-18T01:31:13.812Z,80.55
2023-04-18T01:32:06.490Z,82.93
2023-04-18T01:32:58.044Z,81.77
2023-04-18T01:33:51.578Z,81.99
2023-04-18T01:34:43.245Z,80.26
2023-04-18T01:35:37.607Z,81.72
2023-04-18T01:36:29.333Z,80.91
2023-04-18T01:37:21.101Z,82.03
2023-04-18T01:38:12.565Z,83.15
2023-04-18T01:39:04.040Z,82.01
2023-04-18T01:39:55.613Z,82.18
2023-04-18T01:40:49.476Z,83.21
2023-04-18T01:41:44.928Z,83.56
2023-04-18T01:42:38.463Z,81.46
2023-04-18T01:43:29.986Z,83.37
2023-04-18T01:44:21.731Z,81.67
2023-04-18T01:45:13.310Z,81.04
2023-04-18T01:46:05.765Z,80.92
2023-04-18T01:46:57.234Z,82.56
2023-04-18T01:47:49.671Z,83.05
2023-04-18T01:48:41.136Z,81.56
2023-04-18T01:49:33.645Z,82.55
2023-04-18T01:50:25.220Z,83.42
2023-04-18T01:51:16.761Z,83.94
2023-04-18T01:52:09.565Z,84.33
2023-04-18T01:53:03.525Z,83.22
2023-04-18T01:53:55.081Z,84.48
2023-04-18T01:54:46.513Z,85.16
2023-04-18T01:55:38.062Z,84.06
2023-04-18T01:56:30.983Z,83.81
2023-04-18T01:57:24.366Z,84.52
2023-04-18T01:58:18.037Z,82.29
2023-04-18T01:59:10.277Z,82.14
2023-04-18T02:00:01.919Z,81.85
2023-04-18T02:00:57.718Z,82.71
2023-04-18T02:01:49.218Z,82.53
2023-04-18T02:02:43.162Z,83.22
2023-04-18T02:03:35.197Z,82.09
2023-04-18T02:04:27.974Z,84.06
2023-04-18T02:05:19.485Z,87.47
2023-04-18T02:06:10.857Z,82.41
2023-04-18T02:07:02.343Z,82.90
2023-04-18T02:07:56.510Z,83.60
2023-04-18T02:08:48.156Z,84.96
2023-04-18T02:09:39.590Z,84.54
2023-04-18T02:10:31.058Z,81.98
2023-04-18T02:11:31.921Z,83.05
2023-04-18T02:12:23.429Z,81.68
2023-04-18T02:13:15.435Z,81.63
2023-04-18T02:14:07.253Z,81.17
2023-04-18T02:14:59.026Z,80.62
2023-04-18T02:15:50.884Z,81.09
2023-04-18T02:16:42.349Z,81.11
2023-04-18T02:17:36.404Z,81.90
2023-04-18T02:18:28.027Z,81.44
2023-04-18T02:19:22.501Z,81.69
2023-04-18T02:20:15.600Z,81.75
2023-04-18T02:21:07.209Z,81.24
2023-04-18T02:21:58.683Z,80.61
2023-04-18T02:22:50.416Z,82.07
2023-04-18T02:23:42.027Z,83.01
2023-04-18T02:24:33.507Z,82.62
2023-04-18T02:25:28.788Z,83.37
2023-04-18T02:26:25.089Z,82.49
2023-04-18T02:27:16.550Z,82.26
2023-04-18T02:28:08.065Z,84.03
2023-04-18T02:29:00.496Z,80.77
2023-04-18T02:29:54.047Z,81.30
2023-04-18T02:30:45.520Z,80.84
2023-04-18T02:31:39.249Z,81.96
2023-04-18T02:32:31.065Z,81.70
2023-04-18T02:33:22.578Z,83.00
2023-04-18T02:34:14.318Z,82.24
2023-04-18T02:35:06.418Z,80.46
2023-04-18T02:35:57.874Z,81.29
2023-04-18T02:36:49.382Z,81.40
2023-04-18T02:37:40.889Z,82.07
2023-04-18T02:38:32.860Z,81.44
2023-04-18T02:39:24.564Z,81.87
2023-04-18T02:40:16.128Z,82.14
2023-04-18T02:41:07.914Z,81.20
2023-04-18T02:41:59.429Z,82.16
2023-04-18T02:42:50.854Z,82.52
2023-04-18T02:43:42.360Z,82.60
2023-04-18T02:44:34.073Z,80.43
2023-04-18T02:45:25.552Z,81.34
2023-04-18T02:46:17.451Z,82.01
2023-04-18T02:47:17.657Z,81.98
2023-04-18T02:48:11.329Z,80.46
2023-04-18T02:49:07.330Z,80.62
2023-04-18T02:50:00.894Z,82.53
2023-04-18T02:50:52.864Z,82.58
2023-04-18T02:51:44.360Z,81.90
2023-04-18T02:52:36.247Z,81.41
2023-04-18T02:53:27.947Z,81.93
2023-04-18T02:54:20.474Z,82.99
2023-04-18T02:55:24.588Z,82.62
2023-04-18T02:56:19.473Z,82.75
2023-04-18T02:57:33.725Z,82.44
2023-04-18T02:59:03.491Z,81.71
2023-04-18T03:00:14.670Z,84.22
2023-04-18T03:01:22.313Z,83.79
2023-04-18T03:02:20.782Z,82.87
2023-04-18T03:03:17.746Z,82.66
2023-04-18T03:04:22.590Z,81.82
2023-04-18T03:05:22.067Z,82.45
2023-04-18T03:06:16.374Z,82.11
2023-04-18T03:07:07.935Z,82.50
2023-04-18T03:08:01.799Z,83.66
2023-04-18T03:08:55.955Z,82.51
2023-04-18T03:09:49.128Z,82.05
2023-04-18T03:10:48.808Z,80.99
2023-04-18T03:11:42.536Z,83.39
2023-04-18T03:12:34.670Z,83.89
2023-04-18T03:13:27.344Z,82.49
2023-04-18T03:14:18.892Z,81.90
2023-04-18T03:15:15.461Z,83.67
2023-04-18T03:16:07.784Z,83.81
2023-04-18T03:16:59.904Z,83.28
2023-04-18T03:17:56.039Z,82.11
2023-04-18T03:18:48.294Z,82.58
2023-04-18T03:19:40.821Z,82.63
2023-04-18T03:20:35.247Z,80.94
2023-04-18T03:21:27.596Z,82.48
2023-04-18T03:22:19.238Z,82.76
2023-04-18T03:23:17.308Z,83.23
2023-04-18T03:24:10.870Z,83.80
2023-04-18T03:25:07.534Z,81.51
2023-04-18T03:26:09.283Z,83.38
2023-04-18T03:27:03.610Z,84.03
2023-04-18T03:27:55.234Z,82.71
2023-04-18T03:28:50.668Z,82.46
2023-04-18T03:29:42.177Z,82.80
2023-04-18T03:30:34.027Z,81.54
2023-04-18T03:31:26.885Z,81.80
2023-04-18T03:32:18.642Z,84.41
2023-04-18T03:33:14.714Z,83.77
2023-04-18T03:34:06.621Z,82.57
2023-04-18T03:34:58.257Z,82.89
2023-04-18T03:35:52.434Z,83.34
2023-04-18T03:36:45.951Z,82.61
2023-04-18T03:37:39.274Z,84.59
2023-04-18T03:38:32.275Z,85.13
2023-04-18T03:39:23.760Z,85.09
2023-04-18T03:40:18.955Z,85.78
2023-04-18T03:41:14.471Z,85.72
2023-04-18T03:42:06.682Z,84.64
2023-04-18T03:43:02.188Z,86.12
2023-04-18T03:43:53.862Z,84.39
2023-04-18T03:44:45.321Z,84.27
2023-04-18T03:45:38.002Z,85.44
2023-04-18T03:46:30.755Z,84.83
2023-04-18T03:47:22.870Z,85.38
2023-04-18T03:48:19.869Z,84.74
2023-04-18T03:49:12.153Z,86.08
2023-04-18T03:50:03.996Z,85.43
2023-04-18T03:50:55.676Z,86.90
2023-04-18T03:51:49.493Z,85.96
2023-04-18T03:52:40.979Z,86.08
2023-04-18T03:53:32.597Z,85.95
2023-04-18T03:54:24.167Z,87.54
2023-04-18T03:55:15.746Z,87.12
2023-04-18T03:56:07.875Z,86.82
2023-04-18T03:57:16.664Z,83.98
2023-04-18T03:58:08.248Z,85.76
2023-04-18T03:58:59.868Z,88.21
2023-04-18T03:59:51.520Z,84.17
2023-04-18T04:00:43.080Z,85.57
2023-04-18T04:01:35.855Z,83.87
2023-04-18T04:02:27.498Z,84.08
2023-04-18T04:03:19.652Z,84.56
2023-04-18T04:04:13.860Z,85.23
2023-04-18T04:05:06.282Z,86.12
2023-04-18T04:05:59.115Z,85.91
2023-04-18T04:06:50.917Z,86.80
2023-04-18T04:07:43.014Z,86.58
2023-04-18T04:08:34.709Z,85.22
2023-04-18T04:09:27.250Z,84.49
2023-04-18T04:10:18.862Z,83.97
2023-04-18T04:11:12.018Z,84.12
2023-04-18T04:12:04.448Z,84.79
2023-04-18T04:12:56.920Z,82.56
2023-04-18T04:13:48.417Z,84.48
2023-04-18T04:14:43.183Z,82.93
2023-04-18T04:15:38.383Z,83.96
2023-04-18T04:16:32.062Z,81.61
2023-04-18T04:17:24.265Z,84.10
2023-04-18T04:18:16.964Z,83.68
2023-04-18T04:19:13.078Z,82.14
2023-04-18T04:20:11.972Z,83.99
2023-04-18T04:21:05.824Z,82.55
2023-04-18T04:22:07.763Z,84.10
2023-04-18T04:22:59.962Z,85.03
2023-04-18T04:23:51.734Z,85.92
2023-04-18T04:24:52.160Z,85.05
2023-04-18T04:25:50.037Z,83.97
2023-04-18T04:26:59.620Z,84.51
2023-04-18T04:27:53.524Z,84.12
2023-04-18T04:28:46.707Z,84.29
2023-04-18T04:29:43.664Z,84.56
2023-04-18T04:30:35.825Z,84.43
2023-04-18T04:31:28.672Z,85.42
2023-04-18T04:32:21.633Z,85.80
2023-04-18T04:33:13.320Z,86.10
2023-04-18T04:34:05.005Z,85.37
2023-04-18T04:34:57.268Z,85.27
2023-04-18T04:35:49.794Z,84.83
2023-04-18T04:36:43.096Z,86.48
2023-04-18T04:37:39.402Z,85.56
2023-04-18T04:38:41.539Z,86.08
2023-04-18T04:39:33.225Z,86.44
2023-04-18T04:40:47.486Z,85.80
2023-04-18T04:41:40.332Z,83.92
2023-04-18T04:42:32.398Z,86.11
2023-04-18T04:43:30.745Z,86.95
2023-04-18T04:44:25.704Z,87.49
2023-04-18T04:45:19.284Z,88.39
2023-04-18T04:46:13.584Z,88.23
2023-04-18T04:47:06.571Z,87.69
2023-04-18T04:48:00.867Z,87.08
2023-04-18T04:48:54.298Z,86.63
2023-04-18T04:49:45.797Z,87.57
2023-04-18T04:50:38.882Z,86.95
2023-04-18T04:51:31.766Z,86.86
2023-04-18T04:52:24.677Z,86.82
2023-04-18T04:53:16.365Z,85.96
2023-04-18T04:54:07.921Z,85.97
2023-04-18T04:54:59.725Z,86.09
2023-04-18T04:55:53.614Z,85.09
2023-04-18T04:56:45.387Z,86.77
2023-04-18T04:57:37.851Z,85.95
2023-04-18T04:58:41.232Z,86.33
2023-04-18T04:59:38.812Z,86.99
2023-04-18T05:00:30.730Z,85.84
2023-04-18T05:01:22.653Z,86.24
2023-04-18T05:02:14.700Z,84.66
2023-04-18T05:03:08.132Z,85.98
2023-04-18T05:04:02.504Z,85.24
2023-04-18T05:04:54.057Z,83.86
2023-04-18T05:05:46.081Z,85.36
2023-04-18T05:06:39.608Z,85.01
2023-04-18T05:07:31.645Z,85.22
2023-04-18T05:08:26.159Z,86.22
2023-04-18T05:09:17.689Z,88.03
2023-04-18T05:10:09.614Z,88.91
2023-04-18T05:11:02.183Z,86.33
2023-04-18T05:11:53.606Z,85.15
2023-04-18T05:12:45.013Z,83.90
2023-04-18T05:13:38.870Z,83.61
2023-04-18T05:14:30.961Z,85.33
2023-04-18T05:15:23.416Z,83.89
2023-04-18T05:16:17.714Z,84.77
2023-04-18T05:17:10.335Z,85.03
2023-04-18T05:18:01.845Z,87.52
2023-04-18T05:18:53.330Z,85.97
2023-04-18T05:19:44.858Z,85.00
2023-04-18T05:20:36.291Z,84.90
2023-04-18T05:21:28.838Z,85.06
2023-04-18T05:22:20.314Z,84.91
2023-04-18T05:23:12.130Z,84.30
2023-04-18T05:24:03.610Z,84.77
2023-04-18T05:24:55.340Z,84.58
2023-04-18T05:25:47.001Z,84.50
2023-04-18T05:26:38.669Z,83.65
2023-04-18T05:27:30.191Z,84.57
2023-04-18T05:28:25.812Z,84.77
2023-04-18T05:29:17.341Z,85.77
2023-04-18T05:30:09.443Z,84.47
2023-04-18T05:31:03.828Z,86.28
2023-04-18T05:31:57.726Z,85.47
2023-04-18T05:32:49.367Z,84.96
2023-04-18T05:33:40.789Z,84.66
2023-04-18T05:34:37.317Z,83.65
2023-04-18T05:35:31.175Z,84.61
2023-04-18T05:36:24.992Z,85.73
2023-04-18T05:37:16.801Z,85.20
2023-04-18T05:38:08.200Z,85.40
2023-04-18T05:38:59.692Z,84.73
2023-04-18T05:39:51.377Z,84.71
2023-04-18T05:40:43.378Z,85.51
2023-04-18T05:41:34.857Z,83.49
2023-04-18T05:42:26.527Z,87.31
2023-04-18T05:43:19.663Z,82.93
2023-04-18T05:44:11.231Z,84.32
2023-04-18T05:45:02.753Z,84.61
2023-04-18T05:45:55.828Z,84.13
2023-04-18T05:46:51.303Z,83.50
2023-04-18T05:47:45.550Z,83.33
2023-04-18T05:48:37.052Z,80.87
2023-04-18T05:49:28.697Z,79.76
2023-04-18T05:50:20.883Z,80.82
2023-04-18T05:51:12.344Z,81.83
2023-04-18T05:52:04.078Z,82.26
2023-04-18T05:52:59.020Z,81.99
2023-04-18T05:53:50.621Z,81.90
2023-04-18T05:54:42.108Z,80.13
2023-04-18T05:55:34.364Z,80.78
2023-04-18T05:56:25.918Z,80.72
2023-04-18T05:57:17.324Z,80.62
2023-04-18T05:58:08.751Z,80.27
2023-04-18T05:59:00.274Z,81.13
2023-04-18T05:59:51.816Z,81.06
2023-04-18T06:00:43.472Z,80.82
2023-04-18T06:01:35.181Z,82.21
2023-04-18T06:02:26.814Z,81.59
2023-04-18T06:03:18.512Z,81.93
2023-04-18T06:04:10.534Z,81.77
2023-04-18T06:05:02.269Z,81.81
2023-04-18T06:05:54.040Z,82.20
2023-04-18T06:06:46.089Z,81.22
2023-04-18T06:07:39.351Z,80.07
2023-04-18T06:08:30.838Z,80.57
2023-04-18T06:09:22.358Z,81.80
2023-04-18T06:10:16.851Z,80.65
2023-04-18T06:11:08.947Z,82.10
2023-04-18T06:12:03.043Z,82.22
2023-04-18T06:12:54.716Z,82.47
2023-04-18T06:13:46.143Z,81.64
2023-04-18T06:14:37.657Z,79.66
2023-04-18T06:15:31.205Z,80.09
2023-04-18T06:16:23.003Z,79.19
2023-04-18T06:17:15.819Z,77.92
2023-04-18T06:18:07.403Z,79.09
2023-04-18T06:19:01.059Z,78.35
2023-04-18T06:19:52.964Z,78.22
2023-04-18T06:20:45.253Z,76.80
2023-04-18T06:21:36.791Z,76.90
2023-04-18T06:22:28.336Z,78.80
2023-04-18T06:23:19.800Z,78.84
2023-04-18T06:24:11.270Z,74.88
2023-04-18T06:25:10.682Z,77.54
2023-04-18T06:26:02.225Z,76.64
2023-04-18T06:26:55.127Z,76.71
2023-04-18T06:27:46.644Z,79.59
2023-04-18T06:28:38.166Z,76.23
2023-04-18T06:29:33.056Z,75.81
2023-04-18T06:30:24.550Z,79.43
2023-04-18T06:31:16.539Z,80.17
2023-04-18T06:32:08.301Z,77.97
2023-04-18T06:33:00.050Z,75.68
2023-04-18T06:33:51.632Z,74.92
2023-04-18T06:34:44.762Z,74.62
2023-04-18T06:35:40.622Z,75.81
2023-04-18T06:36:34.561Z,77.27
2023-04-18T06:37:29.502Z,75.81
2023-04-18T06:38:21.065Z,76.58
2023-04-18T06:39:12.620Z,75.61
2023-04-18T06:40:04.590Z,75.30
2023-04-18T06:40:56.026Z,74.34
2023-04-18T06:41:50.574Z,74.59
2023-04-18T06:42:52.373Z,75.39
2023-04-18T06:43:55.705Z,76.02
2023-04-18T06:44:53.500Z,73.91
2023-04-18T06:45:45.506Z,75.27
2023-04-18T06:46:37.189Z,78.44
2023-04-18T06:47:29.531Z,76.02
2023-04-18T06:48:21.104Z,77.95
2023-04-18T06:49:12.571Z,76.14
2023-04-18T06:50:05.213Z,78.71
2023-04-18T06:50:56.726Z,76.70
2023-04-18T06:51:48.375Z,76.28
2023-04-18T06:52:45.413Z,75.92
2023-04-18T06:53:37.039Z,76.21
2023-04-18T06:54:30.862Z,75.69
2023-04-18T06:55:22.380Z,74.69
2023-04-18T06:56:13.969Z,74.27
2023-04-18T06:57:06.045Z,75.34
2023-04-18T06:57:58.613Z,71.85
2023-04-18T06:58:52.647Z,73.38
2023-04-18T06:59:44.186Z,74.86
2023-04-18T07:00:35.678Z,75.08
2023-04-18T07:01:27.134Z,74.64
2023-04-18T07:02:18.787Z,73.88
2023-04-18T07:03:13.452Z,73.70
2023-04-18T07:04:05.398Z,74.79
2023-04-18T07:04:57.297Z,72.34
2023-04-18T07:05:50.313Z,71.67
2023-04-18T07:06:42.647Z,71.25
2023-04-18T07:07:35.421Z,71.52
2023-04-18T07:08:27.053Z,70.22
2023-04-18T07:09:18.782Z,74.74
2023-04-18T07:10:13.084Z,72.70
2023-04-18T07:11:07.863Z,73.42
2023-04-18T07:11:59.464Z,72.51
2023-04-18T07:12:51.267Z,74.25
2023-04-18T07:13:44.276Z,73.70
2023-04-18T07:14:35.725Z,72.19
2023-04-18T07:15:30.219Z,71.77
2023-04-18T07:16:21.818Z,72.45
2023-04-18T07:17:13.846Z,72.45
2023-04-18T07:18:05.495Z,69.88
2023-04-18T07:18:57.172Z,72.97
2023-04-18T07:19:48.846Z,70.11
2023-04-18T07:20:40.438Z,70.18
2023-04-18T07:21:32.170Z,71.10
2023-04-18T07:22:25.879Z,70.54
2023-04-18T07:23:17.542Z,71.85
2023-04-18T07:24:09.852Z,71.61
2023-04-18T07:25:01.446Z,72.33
2023-04-18T07:25:58.583Z,71.85
2023-04-18T07:26:52.514Z,71.74
2023-04-18T07:27:46.633Z,71.20
2023-04-18T07:28:38.465Z,70.25
2023-04-18T07:29:29.945Z,71.16
2023-04-18T07:30:21.883Z,71.65
2023-04-18T07:31:14.413Z,70.59
2023-04-18T07:32:08.756Z,71.95
2023-04-18T07:33:00.304Z,70.52
2023-04-18T07:33:52.083Z,69.46
2023-04-18T07:34:44.946Z,70.81
2023-04-18T07:35:37.025Z,71.37
2023-04-18T07:36:31.323Z,71.94
2023-04-18T07:37:23.265Z,69.50
2023-04-18T07:38:14.787Z,69.40
2023-04-18T07:39:06.941Z,72.44
2023-04-18T07:40:03.736Z,71.72
2023-04-18T07:41:00.054Z,71.23
2023-04-18T07:41:51.565Z,70.45
2023-04-18T07:42:43.836Z,70.10
2023-04-18T07:43:35.876Z,69.13
2023-04-18T07:44:27.396Z,69.34
2023-04-18T07:45:19.099Z,68.80
2023-04-18T07:46:11.025Z,70.55
2023-04-18T07:47:03.338Z,72.29
2023-04-18T07:47:57.434Z,70.38
2023-04-18T07:48:49.193Z,69.77
2023-04-18T07:49:41.091Z,68.01
2023-04-18T07:50:32.526Z,67.85
2023-04-18T07:51:26.552Z,70.25
2023-04-18T07:52:18.277Z,66.66
2023-04-18T07:53:09.834Z,69.16
2023-04-18T07:54:01.575Z,68.15
2023-04-18T07:54:53.400Z,66.25
2023-04-18T07:55:46.380Z,68.35
2023-04-18T07:56:37.969Z,69.05
2023-04-18T07:57:29.552Z,67.35
2023-04-18T07:58:21.147Z,69.20
2023-04-18T07:59:12.975Z,65.80
2023-04-18T08:00:06.418Z,66.29
2023-04-18T08:01:04.643Z,64.80
2023-04-18T08:01:56.405Z,65.60
2023-04-18T08:02:48.040Z,65.74
2023-04-18T08:03:42.219Z,67.51
2023-04-18T08:04:34.021Z,67.36
2023-04-18T08:05:25.932Z,67.55
2023-04-18T08:06:17.714Z,68.00
2023-04-18T08:07:09.174Z,65.59
2023-04-18T08:08:00.643Z,65.22
2023-04-18T08:08:54.353Z,63.16
2023-04-18T08:09:46.044Z,67.76
2023-04-18T08:10:38.608Z,66.87
2023-04-18T08:11:30.570Z,64.30
2023-04-18T08:12:23.297Z,63.53
2023-04-18T08:13:14.778Z,67.07
2023-04-18T08:14:06.289Z,62.44
2023-04-18T08:14:57.751Z,65.02
2023-04-18T08:15:49.184Z,62.72
2023-04-18T08:16:40.781Z,65.26
2023-04-18T08:17:33.070Z,64.22
2023-04-18T08:18:24.540Z,62.35
2023-04-18T08:19:16.172Z,62.41
2023-04-18T08:20:07.929Z,62.40
2023-04-18T08:20:59.463Z,61.25
2023-04-18T08:21:51.484Z,62.62
2023-04-18T08:22:57.425Z,63.58
2023-04-18T08:23:53.393Z,61.69
2023-04-18T08:25:01.178Z,62.08
2023-04-18T08:25:55.251Z,62.26
2023-04-18T08:26:46.796Z,61.05
2023-04-18T08:27:38.358Z,60.90
2023-04-18T08:28:29.824Z,63.59
2023-04-18T08:29:31.606Z,62.69
2023-04-18T08:30:23.590Z,60.21
2023-04-18T08:31:16.274Z,59.54
2023-04-18T08:32:08.057Z,62.04
2023-04-18T08:33:00.366Z,60.89
2023-04-18T08:33:51.883Z,62.20
2023-04-18T08:34:43.471Z,60.11
2023-04-18T08:35:35.380Z,59.43
2023-04-18T08:36:27.731Z,59.98
2023-04-18T08:37:19.248Z,59.47
2023-04-18T08:38:10.756Z,58.69
2023-04-18T08:39:03.421Z,59.83
2023-04-18T08:39:54.966Z,62.94
2023-04-18T08:40:47.051Z,58.79
2023-04-18T08:41:43.168Z,61.36
2023-04-18T08:42:36.066Z,63.04
2023-04-18T08:43:30.040Z,60.39
2023-04-18T08:44:21.687Z,59.21
2023-04-18T08:45:14.153Z,58.10
2023-04-18T08:46:05.827Z,59.09
2023-04-18T08:46:57.646Z,58.83
2023-04-18T08:47:49.281Z,61.30
2023-04-18T08:48:41.312Z,60.21
2023-04-18T08:49:34.184Z,59.04
2023-04-18T08:50:25.676Z,58.54
2023-04-18T08:51:19.527Z,58.16
2023-04-18T08:52:14.239Z,60.45
2023-04-18T08:53:05.795Z,62.03
2023-04-18T08:53:57.641Z,62.96
2023-04-18T08:54:50.871Z,64.55
2023-04-18T08:55:44.386Z,63.00
2023-04-18T08:56:37.323Z,61.67
2023-04-18T08:57:31.694Z,63.97
2023-04-18T08:58:25.525Z,60.12
2023-04-18T08:59:18.413Z,62.20
2023-04-18T09:00:11.679Z,61.97
2023-04-18T09:01:07.222Z,61.85
2023-04-18T09:02:01.670Z,60.92
2023-04-18T09:02:57.610Z,61.92
2023-04-18T09:03:50.426Z,62.16
2023-04-18T09:04:45.093Z,60.43
2023-04-18T09:05:38.917Z,60.65
2023-04-18T09:06:30.694Z,62.60
2023-04-18T09:07:28.651Z,61.91
2023-04-18T09:08:26.578Z,62.22
2023-04-18T09:09:18.674Z,61.08
2023-04-18T09:10:11.209Z,60.14
2023-04-18T09:11:29.396Z,59.62
2023-04-18T09:12:22.903Z,58.37
2023-04-18T09:13:15.100Z,60.92
2023-04-18T09:14:08.038Z,60.28
2023-04-18T09:15:13.667Z,60.00
2023-04-18T09:16:06.198Z,59.07
2023-04-18T09:16:57.808Z,59.80
2023-04-18T09:17:55.906Z,57.71
2023-04-18T09:19:12.952Z,57.97
2023-04-18T09:20:09.545Z,57.80
2023-04-18T09:21:18.434Z,59.69
2023-04-18T09:22:09.880Z,58.26
2023-04-18T09:23:14.402Z,61.70
2023-04-18T09:24:27.097Z,62.38
2023-04-18T09:25:46.887Z,61.24
2023-04-18T09:26:39.415Z,62.39
2023-04-18T09:27:34.873Z,60.08
2023-04-18T09:28:31.649Z,57.18
2023-04-18T09:29:41.362Z,60.93
2023-04-18T09:30:37.575Z,61.17
2023-04-18T09:31:31.380Z,57.27
2023-04-18T09:32:26.778Z,60.64
2023-04-18T09:33:28.299Z,61.80
2023-04-18T09:34:24.907Z,59.66
2023-04-18T09:35:25.571Z,58.29
2023-04-18T09:36:18.729Z,59.80
2023-04-18T09:37:15.779Z,59.31
2023-04-18T09:38:07.914Z,58.67
2023-04-18T09:38:59.651Z,61.24
2023-04-18T09:39:51.719Z,59.29
2023-04-18T09:40:43.295Z,59.60
2023-04-18T09:41:36.990Z,58.07
2023-04-18T09:42:35.967Z,59.98
2023-04-18T09:43:27.729Z,58.44
2023-04-18T09:44:20.400Z,55.71
2023-04-18T09:45:16.171Z,57.20
2023-04-18T09:46:09.286Z,57.05
2023-04-18T09:47:01.194Z,55.38
2023-04-18T09:47:56.374Z,59.20
2023-04-18T09:48:47.814Z,57.85
2023-04-18T09:49:39.285Z,56.99
2023-04-18T09:50:32.699Z,58.13
2023-04-18T09:51:24.302Z,58.04
2023-04-18T09:52:16.029Z,57.83
2023-04-18T09:53:08.601Z,59.28
2023-04-18T09:54:00.753Z,58.65
2023-04-18T09:54:58.579Z,56.25
2023-04-18T09:55:56.239Z,59.23
2023-04-18T09:56:51.622Z,57.82
2023-04-18T09:57:47.292Z,59.63
2023-04-18T09:58:42.190Z,57.24
2023-04-18T09:59:44.534Z,58.09
2023-04-18T10:00:39.744Z,59.22
2023-04-18T10:01:32.569Z,58.80
2023-04-18T10:02:35.847Z,62.81
2023-04-18T10:03:34.992Z,58.06
2023-04-18T10:04:29.140Z,59.45
2023-04-18T10:05:30.745Z,58.24
2023-04-18T10:06:22.427Z,56.89
2023-04-18T10:07:16.680Z,58.23
2023-04-18T10:08:13.509Z,60.77
2023-04-18T10:09:06.343Z,59.19
2023-04-18T10:09:57.789Z,57.46
2023-04-18T10:10:49.416Z,58.02
2023-04-18T10:11:43.697Z,57.20
2023-04-18T10:12:37.155Z,57.21
2023-04-18T10:13:30.024Z,55.92
2023-04-18T10:14:22.917Z,56.84
2023-04-18T10:15:16.754Z,57.77
2023-04-18T10:16:08.689Z,57.41
2023-04-18T10:17:02.936Z,57.25
2023-04-18T10:18:04.608Z,60.22
2023-04-18T10:18:58.323Z,53.50
2023-04-18T10:20:06.345Z,52.76
2023-04-18T10:21:04.068Z,55.19
2023-04-18T10:21:59.460Z,58.83
2023-04-18T10:22:55.932Z,57.07
2023-04-18T10:23:49.042Z,58.57
2023-04-18T10:24:50.141Z,57.38
2023-04-18T10:25:48.374Z,55.94
2023-04-18T10:26:47.111Z,56.04
2023-04-18T10:27:47.461Z,57.55
2023-04-18T10:28:58.607Z,55.48
2023-04-18T10:29:52.005Z,58.26
2023-04-18T10:30:44.342Z,54.80
2023-04-18T10:31:39.112Z,56.82
2023-04-18T10:32:30.927Z,57.01
2023-04-18T10:33:33.678Z,59.23
2023-04-18T10:34:25.689Z,55.43
2023-04-18T10:35:21.198Z,55.95
2023-04-18T10:36:16.858Z,59.19
2023-04-18T10:37:08.864Z,56.93
2023-04-18T10:38:01.844Z,55.96
2023-04-18T10:38:59.191Z,54.67
2023-04-18T10:39:53.477Z,54.51
2023-04-18T10:40:45.475Z,57.87
2023-04-18T10:41:50.630Z,56.50
2023-04-18T10:42:45.379Z,55.49
2023-04-18T10:44:08.467Z,59.23
2023-04-18T10:45:23.337Z,58.69
2023-04-18T10:46:30.454Z,61.27
2023-04-18T10:47:23.717Z,56.58
2023-04-18T10:48:25.965Z,54.76
2023-04-18T10:49:25.439Z,54.96
2023-04-18T10:50:18.470Z,56.07
2023-04-18T10:51:16.921Z,59.52
2023-04-18T10:52:08.901Z,55.22
2023-04-18T10:53:00.850Z,57.27
2023-04-18T10:53:57.519Z,56.39
2023-04-18T10:54:59.127Z,56.72
2023-04-18T10:55:55.069Z,55.61
2023-04-18T10:56:54.413Z,59.54
2023-04-18T10:57:50.368Z,60.11
2023-04-18T10:58:44.111Z,62.76
2023-04-18T10:59:39.662Z,60.38
2023-04-18T11:00:31.849Z,58.08
2023-04-18T11:01:31.209Z,54.24
2023-04-18T11:02:32.447Z,55.74
2023-04-18T11:03:34.616Z,55.75
2023-04-18T11:04:26.441Z,54.89
2023-04-18T11:05:29.044Z,55.52
2023-04-18T11:06:26.700Z,55.49
2023-04-18T11:07:18.829Z,58.20
2023-04-18T11:08:23.670Z,53.97
2023-04-18T11:09:15.676Z,55.87
2023-04-18T11:10:09.212Z,57.04
2023-04-18T11:11:06.877Z,54.41
2023-04-18T11:12:06.034Z,55.50
2023-04-18T11:13:04.231Z,53.15
2023-04-18T11:14:00.778Z,53.88
2023-04-18T11:14:54.222Z,55.11
2023-04-18T11:15:45.690Z,56.16
2023-04-18T11:16:37.837Z,57.90
2023-04-18T11:17:32.767Z,54.95
2023-04-18T11:18:24.264Z,53.77
2023-04-18T11:19:28.661Z,53.30
2023-04-18T11:20:23.552Z,53.44
2023-04-18T11:21:15.109Z,53.04
2023-04-18T11:22:06.664Z,53.08
2023-04-18T11:23:00.603Z,56.61
2023-04-18T11:23:52.214Z,54.03
2023-04-18T11:24:45.488Z,53.19
2023-04-18T11:25:37.168Z,52.64
2023-04-18T11:26:29.132Z,52.01
2023-04-18T11:27:25.291Z,52.09
2023-04-18T11:28:20.862Z,55.93
2023-04-18T11:29:12.546Z,53.51
2023-04-18T11:30:04.580Z,54.02
2023-04-18T11:30:59.515Z,57.87
2023-04-18T11:31:55.802Z,56.94
2023-04-18T11:32:49.204Z,53.04
2023-04-18T11:33:40.825Z,55.55